Alexandria, LA (71301)

7:48 PM CDT on March 31, 2015 (GMT -0500)
Good Earth | | Change Station
CLOSE
Current Station
Personal Weather Station
Location: Alexandria, LA
Elevation: 80 ft
Nearby Weather Stations

Elev 80 ft 31.27 °N, 92.50 °W | Updated 2 minutes ago

Clear
Clear
76.2 °F
Feels Like 78 °F
N
1.0
Wind Variable Wind from South
Gusts 3.0 mph

Today
High -- | Low -- °F
--% Chance of Precip.
Yesterday
High -- | Low -- °F
Precip. -- in
7:00 AM 7:28 PM
Waxing Gibbous, 89% visible
Pressure 29.95 in
Visibility 10.0 miles
Clouds Clear
Heat Index 78 °F
Dew Point 62 °F
Humidity 62%
Rainfall 0.00 in
Snow Depth Not available.
UV 0 out of 12
Pollen 10.60 out of 12
Air Quality Not available.
Flu Activity Not available.
METAR KAEX 312353Z AUTO 21009KT 10SM CLR 26/15 A2994 RMK AO2 SLP142 T02610150 10278 20250 55008

More Conditions Fewer Conditions

Pressure 29.95 in
Visibility 10.0 miles
Clouds Clear
Heat Index 78 °F
Dew Point 62 °F
Humidity 62%
Rainfall 0.00 in
Snow Depth Not available.
UV 0 out of 12
Pollen 10.60 out of 12
Air Quality Not available.
Flu Activity Not available.
METAR KAEX 312353Z AUTO 21009KT 10SM CLR 26/15 A2994 RMK AO2 SLP142 T02610150 10278 20250 55008

More Conditions Fewer Conditions

10-Day Weather Forecast

Almanac

Astronomy

Mar. 31, 2015 Rise Set
Actual Time
Civil Twilight
Nautical Twilight
Astronomical Twilight
Moon
Length of Visible Light
Length of Day
Tomorrow will be .
, % of the Moon is Illuminated

Today's Extremes

State Highs State Lows

Community

WunderPhotos

Upload Photos

1,809,887 photos uploaded!

WunderBlogs® & News

Nearby

Air Quality

  Air Quality AQ Index Pollutant
Not available.

Snow Depth

Station Depth Elevation

Earthquake Activity

City Distance Mag. Time & Date
Minimum magnitude displayed is 2.5.

Coastal Water Temperatures

Place Temperature

Stations

Nearby Weather Stations

Station Location Temp. Windchill Dew Point Humidity Wind Precip. Elev Updated Type